Time;durP1;ratioP1;P1;durP2;ratioP2;P2;SDS_P1;SDS_P2;PMS_P1;PMS_P2;Temp;Humidity;BMP_temperature;BMP_pressure;BME280_temperature;BME280_humidity;BME280_pressure;Samples;Min_cycle;Max_cycle;Signal;HPM_P1;HPM_P2
2021/01/24 00:02:17;;;;;;;13.52;6.55;;;3.00;99.90;;;;;;5049106;28;20090;-81
2021/01/24 00:04:44;;;;;;;14.30;6.40;;;2.90;99.90;;;;;;5059665;28;20045;-82
2021/01/24 00:07:10;;;;;;;12.05;6.63;;;3.00;99.90;;;;;;5055670;28;20048;-82
2021/01/24 00:09:37;;;;;;;13.95;7.25;;;3.00;99.90;;;;;;5051638;28;20056;-82
2021/01/24 00:12:03;;;;;;;20.58;9.18;;;2.90;99.90;;;;;;5057477;28;20052;-82
2021/01/24 00:14:30;;;;;;;20.75;9.07;;;2.90;99.90;;;;;;5055446;28;20048;-81
2021/01/24 00:16:56;;;;;;;17.88;11.43;;;2.90;99.90;;;;;;5082129;28;20085;-82
2021/01/24 00:19:22;;;;;;;23.83;12.32;;;2.90;99.90;;;;;;5070339;28;20051;-82
2021/01/24 00:21:49;;;;;;;26.90;14.35;;;2.90;99.90;;;;;;5071237;28;20379;-82
2021/01/24 00:24:15;;;;;;;19.65;12.13;;;2.90;99.90;;;;;;5058588;28;20049;-82
2021/01/24 00:26:42;;;;;;;20.05;9.90;;;2.90;99.90;;;;;;5071993;28;20071;-82
2021/01/24 00:29:08;;;;;;;18.17;8.30;;;2.90;99.90;;;;;;5067092;28;20437;-82
2021/01/24 00:31:35;;;;;;;18.17;7.88;;;2.90;99.90;;;;;;5076578;28;20069;-82
2021/01/24 00:34:02;;;;;;;13.93;7.90;;;2.90;99.90;;;;;;5048282;28;20045;-82
2021/01/24 00:36:29;;;;;;;17.60;8.20;;;2.90;99.90;;;;;;5068727;28;20049;-82
2021/01/24 00:38:55;;;;;;;16.75;8.20;;;2.90;99.90;;;;;;5045541;28;20045;-82
2021/01/24 00:41:22;;;;;;;17.52;8.45;;;2.90;99.90;;;;;;5052061;28;20052;-82
2021/01/24 00:43:48;;;;;;;23.30;8.70;;;2.90;99.90;;;;;;5049498;28;20037;-82
2021/01/24 00:46:15;;;;;;;18.15;9.52;;;3.00;99.90;;;;;;5067500;28;20080;-82
2021/01/24 00:48:41;;;;;;;16.55;8.70;;;3.00;99.90;;;;;;5071014;28;20481;-82
2021/01/24 00:51:08;;;;;;;16.45;8.50;;;3.00;99.90;;;;;;5068972;28;20094;-82
2021/01/24 00:53:34;;;;;;;15.88;7.65;;;2.90;99.90;;;;;;5067030;28;20099;-82
2021/01/24 00:56:00;;;;;;;17.98;9.00;;;3.00;99.90;;;;;;5056381;28;20059;-82
2021/01/24 00:58:27;;;;;;;18.80;9.35;;;3.00;99.90;;;;;;5077552;28;20144;-82
2021/01/24 01:00:53;;;;;;;20.20;8.93;;;3.00;99.90;;;;;;5061087;28;20048;-82
2021/01/24 01:03:20;;;;;;;18.25;9.30;;;3.00;99.90;;;;;;5055298;28;20064;-82
2021/01/24 01:05:47;;;;;;;20.60;10.80;;;2.90;99.90;;;;;;5057577;28;20474;-82
2021/01/24 01:08:13;;;;;;;23.25;11.05;;;2.90;99.90;;;;;;5050653;28;20044;-82
2021/01/24 01:10:40;;;;;;;23.90;11.30;;;2.90;99.90;;;;;;5064722;28;20048;-82
2021/01/24 01:13:07;;;;;;;20.70;11.32;;;2.90;99.90;;;;;;5052767;28;20109;-82
2021/01/24 01:15:34;;;;;;;16.73;9.60;;;2.90;99.90;;;;;;5053391;28;20056;-82
2021/01/24 01:18:00;;;;;;;20.67;10.50;;;3.00;99.90;;;;;;5052873;28;20048;-82
2021/01/24 01:20:27;;;;;;;19.15;10.55;;;3.00;99.90;;;;;;5054454;28;20044;-82
2021/01/24 01:22:54;;;;;;;18.48;9.88;;;3.00;99.90;;;;;;5065529;28;20471;-82
2021/01/24 01:25:20;;;;;;;13.52;9.63;;;3.00;99.90;;;;;;5065849;28;20055;-81
2021/01/24 01:27:47;;;;;;;21.40;9.13;;;3.00;99.90;;;;;;5069191;28;20045;-82
2021/01/24 01:30:14;;;;;;;17.65;9.48;;;3.00;99.90;;;;;;5066050;28;20856;-82
2021/01/24 01:32:40;;;;;;;18.23;9.65;;;3.00;99.90;;;;;;5069369;28;20056;-82
2021/01/24 01:35:08;;;;;;;15.63;9.95;;;3.00;99.90;;;;;;5061111;28;20083;-82
2021/01/24 01:37:35;;;;;;;15.05;9.48;;;3.10;99.90;;;;;;5048815;28;20589;-82
2021/01/24 01:40:01;;;;;;;18.73;9.88;;;3.10;99.90;;;;;;5067260;28;20090;-82
2021/01/24 01:42:28;;;;;;;20.42;10.05;;;3.10;99.90;;;;;;5069607;28;20079;-82
2021/01/24 01:44:54;;;;;;;19.05;10.05;;;3.10;99.90;;;;;;5070844;28;20049;-82
2021/01/24 01:47:22;;;;;;;21.17;10.45;;;3.10;99.90;;;;;;5054163;28;20098;-82
2021/01/24 01:49:59;;;;;;;18.95;10.23;;;3.20;99.90;;;;;;5064440;28;20474;-82
2021/01/24 01:52:27;;;;;;;17.17;9.43;;;3.20;99.90;;;;;;5068555;28;20116;-82
2021/01/24 01:54:55;;;;;;;19.05;10.13;;;3.20;99.90;;;;;;5070732;28;20041;-82
2021/01/24 01:57:22;;;;;;;15.75;9.80;;;3.30;99.90;;;;;;5037124;28;20036;-81
2021/01/24 01:59:49;;;;;;;18.30;10.30;;;3.30;99.90;;;;;;5055278;28;20103;-82
2021/01/24 02:02:47;;;;;;;15.60;10.07;;;3.30;99.90;;;;;;5069943;28;20064;-82
2021/01/24 02:05:19;;;;;;;21.52;9.35;;;3.40;99.90;;;;;;5053436;28;20064;-82
2021/01/24 02:08:20;;;;;;;16.05;9.45;;;3.40;99.90;;;;;;5067998;28;20055;-82
2021/01/24 02:10:57;;;;;;;18.90;9.40;;;3.40;99.90;;;;;;5067209;28;20059;-82
2021/01/24 02:13:32;;;;;;;19.98;9.48;;;3.40;99.90;;;;;;5064932;28;20052;-82
2021/01/24 02:16:01;;;;;;;12.68;8.88;;;3.40;99.90;;;;;;5051251;28;20102;-82
2021/01/24 02:18:32;;;;;;;18.15;8.60;;;3.40;99.90;;;;;;5066614;28;20099;-82
2021/01/24 02:21:30;;;;;;;17.48;8.57;;;3.40;99.90;;;;;;5068503;28;20049;-82
2021/01/24 02:24:01;;;;;;;15.07;8.25;;;3.40;99.90;;;;;;5050180;28;20056;-82
2021/01/24 02:26:56;;;;;;;15.38;9.48;;;3.30;99.90;;;;;;5069205;28;20071;-82
2021/01/24 02:29:39;;;;;;;16.35;8.25;;;3.30;99.90;;;;;;5068573;28;20053;-82
2021/01/24 02:32:07;;;;;;;14.68;7.35;;;3.30;99.90;;;;;;5064808;28;20047;-82
2021/01/24 02:34:38;;;;;;;10.65;6.50;;;3.30;99.90;;;;;;5046960;28;20132;-82
2021/01/24 02:37:06;;;;;;;15.23;7.10;;;3.20;99.90;;;;;;5047285;28;20041;-82
2021/01/24 02:39:34;;;;;;;14.50;6.53;;;3.20;99.90;;;;;;5055870;28;20474;-81
2021/01/24 02:42:01;;;;;;;11.57;7.00;;;3.20;99.90;;;;;;5069652;28;20044;-82
2021/01/24 02:44:28;;;;;;;15.90;8.15;;;3.20;99.90;;;;;;5053351;28;20500;-82
2021/01/24 02:46:57;;;;;;;11.65;6.78;;;3.20;99.90;;;;;;5052032;28;20040;-82
2021/01/24 02:49:28;;;;;;;9.40;5.82;;;3.10;99.90;;;;;;5052162;28;20037;-82
2021/01/24 02:51:55;;;;;;;7.45;5.10;;;3.10;99.90;;;;;;5070744;28;20414;-82
2021/01/24 02:54:22;;;;;;;7.20;4.45;;;3.10;99.90;;;;;;5037392;28;20056;-81
2021/01/24 02:56:49;;;;;;;8.80;5.13;;;3.10;99.90;;;;;;5053107;28;20045;-81
2021/01/24 02:59:16;;;;;;;6.57;4.68;;;3.10;99.90;;;;;;5052352;28;20052;-82
2021/01/24 03:01:42;;;;;;;7.38;4.68;;;3.10;99.90;;;;;;5050966;28;20059;-82
2021/01/24 03:04:09;;;;;;;9.95;4.00;;;3.20;99.90;;;;;;5065008;28;20049;-82
2021/01/24 03:06:36;;;;;;;6.50;3.78;;;3.20;99.90;;;;;;5049233;28;20075;-82
2021/01/24 03:09:03;;;;;;;8.55;3.88;;;3.20;99.90;;;;;;5067939;28;20048;-82
2021/01/24 03:11:31;;;;;;;8.52;3.45;;;3.30;99.90;;;;;;5049717;28;20053;-81
2021/01/24 03:14:06;;;;;;;8.77;2.22;;;3.30;99.90;;;;;;5061293;28;20044;-82
2021/01/24 03:16:35;;;;;;;5.00;2.05;;;3.50;99.90;;;;;;5058315;28;20137;-82
2021/01/24 03:19:03;;;;;;;8.93;1.98;;;3.70;99.90;;;;;;5057477;28;20470;-82
2021/01/24 03:21:31;;;;;;;2.88;0.80;;;3.80;99.90;;;;;;5047641;28;20041;-82
2021/01/24 03:23:58;;;;;;;2.00;0.50;;;4.00;99.90;;;;;;5046800;28;20044;-82
2021/01/24 03:26:25;;;;;;;2.75;0.25;;;4.10;99.90;;;;;;5052736;28;20040;-82
2021/01/24 03:28:52;;;;;;;3.33;0.68;;;4.20;99.90;;;;;;5064757;28;20047;-82
2021/01/24 03:31:18;;;;;;;2.05;0.32;;;4.20;99.90;;;;;;5066677;28;20037;-82
2021/01/24 03:33:45;;;;;;;3.53;0.50;;;4.30;99.90;;;;;;5050187;28;20059;-82
2021/01/24 03:36:12;;;;;;;2.28;0.40;;;4.30;99.90;;;;;;5066239;28;20048;-82
2021/01/24 03:38:38;;;;;;;0.70;0.20;;;4.20;99.90;;;;;;5069281;28;20051;-82
2021/01/24 03:41:06;;;;;;;2.22;0.40;;;4.30;99.90;;;;;;5050339;28;20452;-82
2021/01/24 03:43:32;;;;;;;1.83;0.45;;;4.20;99.90;;;;;;5068106;28;20052;-82
2021/01/24 03:45:59;;;;;;;2.67;0.38;;;4.20;99.90;;;;;;5070492;28;20041;-82
2021/01/24 03:48:25;;;;;;;3.55;0.57;;;4.20;99.90;;;;;;5066864;28;20493;-82
2021/01/24 03:50:52;;;;;;;0.43;0.30;;;4.20;99.90;;;;;;5051376;28;20059;-82
2021/01/24 03:53:18;;;;;;;2.85;0.30;;;4.10;99.90;;;;;;5063457;28;20390;-82
2021/01/24 03:55:44;;;;;;;3.03;0.30;;;4.10;99.90;;;;;;5065203;28;20056;-82
2021/01/24 03:58:11;;;;;;;3.70;0.70;;;4.10;99.90;;;;;;5051887;28;20043;-82
2021/01/24 04:00:37;;;;;;;2.03;0.60;;;4.10;99.90;;;;;;5049115;28;20426;-82
2021/01/24 04:03:04;;;;;;;3.13;0.60;;;4.10;99.90;;;;;;5049775;28;20137;-82
2021/01/24 04:05:31;;;;;;;2.63;0.47;;;4.10;99.90;;;;;;5051904;28;20409;-82
2021/01/24 04:07:58;;;;;;;3.45;0.77;;;4.20;99.90;;;;;;5047196;28;20482;-82
2021/01/24 04:10:24;;;;;;;7.38;0.80;;;4.30;99.90;;;;;;5064554;28;20076;-82
2021/01/24 04:12:50;;;;;;;9.25;0.90;;;4.30;99.90;;;;;;5066885;28;20436;-81
2021/01/24 04:15:17;;;;;;;8.30;1.95;;;4.40;99.90;;;;;;5045807;28;20107;-82
2021/01/24 04:17:44;;;;;;;8.85;1.33;;;4.50;99.90;;;;;;5049997;28;20049;-82
2021/01/24 04:20:12;;;;;;;8.57;1.10;;;4.50;99.90;;;;;;5034827;28;20053;-82
2021/01/24 04:22:38;;;;;;;6.95;1.00;;;4.60;99.90;;;;;;5041295;28;20057;-82
2021/01/24 04:25:05;;;;;;;7.22;1.20;;;4.60;99.90;;;;;;5046823;28;20045;-82
2021/01/24 04:27:32;;;;;;;6.15;0.90;;;4.60;99.90;;;;;;5048475;28;20123;-82
2021/01/24 04:29:58;;;;;;;6.20;1.00;;;4.70;99.90;;;;;;5049261;28;20053;-82
2021/01/24 04:32:25;;;;;;;9.57;1.30;;;4.70;99.90;;;;;;5048299;28;20110;-82
2021/01/24 04:34:51;;;;;;;8.18;1.20;;;4.70;99.90;;;;;;5046314;28;20378;-82
2021/01/24 04:37:18;;;;;;;9.13;1.10;;;4.70;99.90;;;;;;5047302;28;20045;-82
2021/01/24 04:39:44;;;;;;;12.10;1.70;;;4.70;99.90;;;;;;5048595;28;20064;-82
2021/01/24 04:42:10;;;;;;;9.90;1.10;;;4.80;99.90;;;;;;5061731;28;20118;-82
2021/01/24 04:44:37;;;;;;;10.60;0.88;;;4.80;99.90;;;;;;5047167;28;20094;-82
2021/01/24 04:47:05;;;;;;;8.00;1.45;;;4.80;99.90;;;;;;5042921;28;20403;-82
2021/01/24 04:49:33;;;;;;;4.88;0.70;;;4.90;99.90;;;;;;5044993;28;20114;-82
2021/01/24 04:52:01;;;;;;;3.95;0.47;;;4.90;99.90;;;;;;5049133;28;20044;-82
2021/01/24 04:54:29;;;;;;;11.98;0.77;;;4.90;99.90;;;;;;5064132;28;20041;-82
2021/01/24 04:56:56;;;;;;;5.45;0.55;;;5.00;99.90;;;;;;5041140;28;20506;-82
2021/01/24 04:59:22;;;;;;;2.30;0.40;;;5.00;99.90;;;;;;5079417;28;20180;-82
2021/01/24 05:01:49;;;;;;;5.70;0.50;;;5.10;99.90;;;;;;5067327;28;20041;-82
2021/01/24 05:04:17;;;;;;;3.70;0.57;;;5.10;99.90;;;;;;5037462;28;20067;-81
2021/01/24 05:06:43;;;;;;;6.75;1.05;;;5.20;99.90;;;;;;5070887;28;20052;-82
2021/01/24 05:09:10;;;;;;;8.48;1.20;;;5.20;99.90;;;;;;5069375;28;20122;-82
2021/01/24 05:11:36;;;;;;;7.45;1.15;;;5.30;99.90;;;;;;5050549;28;20045;-82
2021/01/24 05:14:17;;;;;;;6.22;0.50;;;5.40;99.90;;;;;;5050502;28;20045;-82
2021/01/24 05:16:43;;;;;;;5.47;0.60;;;5.40;99.90;;;;;;5052361;28;20492;-83
2021/01/24 05:19:10;;;;;;;2.42;0.35;;;5.40;99.90;;;;;;5049097;28;20543;-82
2021/01/24 05:21:37;;;;;;;0.63;0.10;;;5.40;99.90;;;;;;5059171;28;20052;-82
2021/01/24 05:24:11;;;;;;;1.20;0.10;;;5.40;99.90;;;;;;5055074;28;20060;-82
2021/01/24 05:26:43;;;;;;;0.13;0.10;;;5.40;99.90;;;;;;5058735;28;20044;-83
2021/01/24 05:29:24;;;;;;;0.63;0.10;;;5.30;99.90;;;;;;5054061;28;20425;-82
2021/01/24 05:31:52;;;;;;;1.77;0.20;;;5.30;99.90;;;;;;5051544;28;20045;-82
2021/01/24 05:34:29;;;;;;;1.27;0.40;;;5.30;99.90;;;;;;5045529;28;20045;-83
2021/01/24 05:36:56;;;;;;;1.23;0.10;;;5.30;99.90;;;;;;5051070;28;20052;-82
2021/01/24 05:39:23;;;;;;;3.13;0.30;;;5.30;99.90;;;;;;5066968;28;20037;-82
2021/01/24 05:41:52;;;;;;;1.65;0.10;;;5.30;99.90;;;;;;5077502;28;20053;-82
2021/01/24 05:44:20;;;;;;;0.55;0.10;;;5.30;99.90;;;;;;5049516;28;20045;-82
2021/01/24 05:46:47;;;;;;;1.60;0.13;;;5.30;99.90;;;;;;5060965;28;20405;-82
2021/01/24 05:49:31;;;;;;;1.75;0.28;;;5.20;99.90;;;;;;5067142;28;20040;-82
2021/01/24 05:52:03;;;;;;;1.45;0.30;;;5.20;99.90;;;;;;5072423;28;20052;-82
2021/01/24 05:54:44;;;;;;;7.20;0.70;;;5.20;99.90;;;;;;5071413;28;20040;-82
2021/01/24 05:57:12;;;;;;;2.10;0.20;;;5.20;99.90;;;;;;5067212;28;20049;-82
2021/01/24 05:59:56;;;;;;;1.95;0.30;;;5.20;99.90;;;;;;5040148;28;20048;-82
2021/01/24 06:02:24;;;;;;;2.15;0.30;;;5.20;99.90;;;;;;5049453;28;20045;-82
2021/01/24 06:04:51;;;;;;;8.10;0.40;;;5.10;99.90;;;;;;5049774;28;20057;-82
2021/01/24 06:07:18;;;;;;;3.92;0.40;;;5.10;99.90;;;;;;5052598;28;20078;-81
2021/01/24 06:09:45;;;;;;;5.50;0.77;;;5.20;99.90;;;;;;5053153;28;20044;-82
2021/01/24 06:12:15;;;;;;;8.25;0.60;;;5.20;99.90;;;;;;5070369;28;20098;-82
2021/01/24 06:14:49;;;;;;;2.75;0.55;;;5.20;99.90;;;;;;5071451;28;20041;-82
2021/01/24 06:17:41;;;;;;;6.45;0.50;;;5.10;99.90;;;;;;5070927;28;20553;-82
2021/01/24 06:20:09;;;;;;;5.20;0.57;;;5.20;99.90;;;;;;5058068;28;20045;-82
2021/01/24 06:22:43;;;;;;;7.80;0.73;;;5.20;99.90;;;;;;5036803;28;20067;-81
2021/01/24 06:25:20;;;;;;;5.88;0.50;;;5.10;99.90;;;;;;5064815;28;20048;-82
2021/01/24 06:27:57;;;;;;;6.00;0.55;;;5.20;99.90;;;;;;5047853;28;20053;-82
2021/01/24 06:30:26;;;;;;;7.43;1.23;;;5.20;99.90;;;;;;5046176;28;20100;-82
2021/01/24 06:32:53;;;;;;;5.60;0.70;;;5.20;99.90;;;;;;5048264;28;20052;-82
2021/01/24 06:35:27;;;;;;;7.93;1.10;;;5.30;99.90;;;;;;5049430;28;20060;-82
2021/01/24 06:38:00;;;;;;;5.65;1.23;;;5.30;99.90;;;;;;5033119;28;20041;-82
2021/01/24 06:40:31;;;;;;;8.10;1.33;;;5.30;99.90;;;;;;5049420;28;20045;-82
2021/01/24 06:42:59;;;;;;;4.50;0.52;;;5.40;99.90;;;;;;5045027;28;20075;-81
2021/01/24 06:45:25;;;;;;;4.43;0.55;;;5.40;99.90;;;;;;5045401;28;20059;-82
2021/01/24 06:47:53;;;;;;;5.90;0.77;;;5.40;99.90;;;;;;5049673;28;20368;-82
2021/01/24 06:50:45;;;;;;;8.60;0.82;;;5.40;99.90;;;;;;5048131;28;20053;-82
2021/01/24 06:53:14;;;;;;;10.95;1.10;;;5.50;99.90;;;;;;5036145;28;20045;-81
2021/01/24 06:55:52;;;;;;;8.40;1.15;;;5.50;99.90;;;;;;5031858;28;20052;-82
2021/01/24 06:58:32;;;;;;;4.00;0.70;;;5.50;99.90;;;;;;5047582;28;20110;-82
2021/01/24 07:01:32;;;;;;;8.60;0.70;;;5.50;99.90;;;;;;5048579;28;20107;-82
2021/01/24 07:04:19;;;;;;;10.00;1.00;;;5.50;99.90;;;;;;5036646;28;20099;-82
2021/01/24 07:06:50;;;;;;;4.82;0.73;;;5.50;99.90;;;;;;5050560;28;20453;-82
2021/01/24 07:09:26;;;;;;;7.25;0.80;;;5.50;99.90;;;;;;5047466;28;20143;-81
2021/01/24 07:12:06;;;;;;;5.53;0.68;;;5.50;99.90;;;;;;5048700;28;20360;-81
2021/01/24 07:14:33;;;;;;;6.80;1.00;;;5.50;99.90;;;;;;5045910;28;20479;-82
2021/01/24 07:17:12;;;;;;;8.90;0.82;;;5.50;99.90;;;;;;5045136;28;20479;-81
2021/01/24 07:19:45;;;;;;;6.65;1.50;;;5.50;99.90;;;;;;5031942;28;20449;-81
2021/01/24 07:22:13;;;;;;;7.95;1.13;;;5.50;99.90;;;;;;5060120;28;20048;-82
2021/01/24 07:24:42;;;;;;;8.93;1.25;;;5.50;99.90;;;;;;5050896;28;20041;-82
2021/01/24 07:27:17;;;;;;;5.18;0.93;;;5.50;99.90;;;;;;5045693;28;20471;-81
2021/01/24 07:29:44;;;;;;;8.95;1.15;;;5.50;99.90;;;;;;5042601;28;20375;-81
2021/01/24 07:32:19;;;;;;;14.35;1.30;;;5.50;99.90;;;;;;5052948;28;20471;-82
2021/01/24 07:34:48;;;;;;;11.40;1.15;;;5.50;99.90;;;;;;5043016;28;20037;-81
2021/01/24 07:37:15;;;;;;;;;;;5.50;99.90;;;;;;5044999;28;20072;-82
2021/01/24 07:39:43;;;;;;;8.55;1.00;;;5.50;99.90;;;;;;5046753;28;20252;-83
2021/01/24 07:42:11;;;;;;;8.50;0.82;;;5.50;99.90;;;;;;5032964;28;20049;-84
2021/01/24 07:44:40;;;;;;;9.90;1.05;;;5.60;99.90;;;;;;5039639;28;20052;-81
2021/01/24 07:47:07;;;;;;;6.40;1.23;;;5.60;99.90;;;;;;5039583;28;20091;-81
2021/01/24 07:49:34;;;;;;;5.78;0.80;;;5.50;99.90;;;;;;5040154;28;20048;-81
2021/01/24 07:52:03;;;;;;;12.82;1.17;;;5.60;99.90;;;;;;5058675;28;20075;-81
2021/01/24 07:54:30;;;;;;;;;;;5.60;99.90;;;;;;5058977;28;20068;-81
2021/01/24 07:56:56;;;;;;;5.68;0.70;;;5.60;99.90;;;;;;5035943;28;19921;-81
2021/01/24 07:59:24;;;;;;;8.40;1.00;;;5.60;99.90;;;;;;5032534;28;20087;-81
2021/01/24 08:01:52;;;;;;;10.88;0.88;;;5.60;99.90;;;;;;5029002;28;20057;-81
2021/01/24 08:04:22;;;;;;;4.70;0.70;;;5.60;99.90;;;;;;5026578;28;20086;-81
2021/01/24 08:06:50;;;;;;;9.25;1.25;;;5.70;99.90;;;;;;5037182;28;20056;-81
2021/01/24 08:09:16;;;;;;;8.32;1.00;;;5.70;99.90;;;;;;5036046;28;20395;-81
2021/01/24 08:11:43;;;;;;;7.45;1.10;;;5.70;99.90;;;;;;5049360;28;20049;-81
2021/01/24 08:14:10;;;;;;;9.75;1.20;;;5.80;99.90;;;;;;5040949;28;20057;-81
2021/01/24 08:16:39;;;;;;;5.15;1.27;;;5.80;99.90;;;;;;5041320;28;20099;-81
2021/01/24 08:19:09;;;;;;;8.63;1.10;;;5.80;99.90;;;;;;5037273;28;20159;-81
2021/01/24 08:21:38;;;;;;;10.85;1.38;;;5.80;99.90;;;;;;5043066;28;20103;-82
2021/01/24 08:24:07;;;;;;;10.73;1.63;;;5.80;99.90;;;;;;5041288;28;20053;-83
2021/01/24 08:26:35;;;;;;;9.65;1.13;;;5.80;99.90;;;;;;5045015;28;20048;-81
2021/01/24 08:29:02;;;;;;;7.40;1.27;;;5.80;99.90;;;;;;5027863;28;20057;-82
2021/01/24 08:31:29;;;;;;;10.98;1.95;;;5.80;99.90;;;;;;5042013;28;20304;-81
2021/01/24 08:33:56;;;;;;;11.45;1.95;;;5.80;99.90;;;;;;5041756;28;20045;-82
2021/01/24 08:36:25;;;;;;;10.85;1.65;;;5.80;99.90;;;;;;5045523;28;20044;-82
2021/01/24 08:38:56;;;;;;;;;;;5.80;99.90;;;;;;5048295;28;20379;-82
2021/01/24 08:41:37;;;;;;;9.18;3.47;;;5.80;99.90;;;;;;5052576;28;20420;-82
2021/01/24 08:44:04;;;;;;;14.57;3.65;;;5.80;99.90;;;;;;5038755;28;20146;-82
2021/01/24 08:46:39;;;;;;;11.20;1.85;;;5.80;99.90;;;;;;5038337;28;20051;-82
2021/01/24 08:49:23;;;;;;;11.52;1.67;;;5.80;99.90;;;;;;5045266;28;20049;-81
2021/01/24 08:51:55;;;;;;;8.15;1.05;;;5.80;99.90;;;;;;5046884;28;20479;-82
2021/01/24 08:54:24;;;;;;;8.73;1.25;;;5.90;99.90;;;;;;5044775;28;20506;-82
2021/01/24 08:57:05;;;;;;;8.18;1.08;;;6.00;99.90;;;;;;5038880;28;20053;-82
2021/01/24 08:59:32;;;;;;;7.70;1.75;;;6.10;99.90;;;;;;5041624;28;20076;-82
2021/01/24 09:01:59;;;;;;;6.78;0.93;;;6.20;99.90;;;;;;5039312;28;20057;-82
2021/01/24 09:04:26;;;;;;;5.63;0.70;;;6.20;99.90;;;;;;5044707;28;20037;-82
2021/01/24 09:07:10;;;;;;;4.25;1.00;;;6.20;99.90;;;;;;5047209;28;20049;-82
2021/01/24 09:09:41;;;;;;;10.00;0.98;;;6.10;99.90;;;;;;5069822;28;20059;-81
2021/01/24 09:12:15;;;;;;;6.43;1.00;;;6.10;99.90;;;;;;5046702;28;20075;-82
2021/01/24 09:14:43;;;;;;;9.85;1.00;;;6.00;99.90;;;;;;5040987;28;20080;-83
2021/01/24 09:17:10;;;;;;;6.35;0.90;;;6.00;99.90;;;;;;5046869;28;20498;-82
2021/01/24 09:19:39;;;;;;;4.95;0.77;;;6.00;99.90;;;;;;5041144;28;20136;-82
2021/01/24 09:22:13;;;;;;;6.70;1.20;;;6.00;99.90;;;;;;5038981;28;20065;-83
2021/01/24 09:24:41;;;;;;;5.45;0.77;;;6.00;99.90;;;;;;5039239;28;20045;-82
2021/01/24 09:27:10;;;;;;;7.10;0.90;;;6.00;99.90;;;;;;5041389;28;20076;-82
2021/01/24 09:29:38;;;;;;;4.63;1.50;;;6.00;99.90;;;;;;5040637;28;20064;-82
2021/01/24 09:32:06;;;;;;;9.10;1.15;;;6.10;99.90;;;;;;5042443;28;20048;-82
2021/01/24 09:34:33;;;;;;;6.53;0.93;;;6.10;99.90;;;;;;5040352;28;20105;-83
2021/01/24 09:37:00;;;;;;;5.40;0.68;;;6.30;99.90;;;;;;5051531;28;20049;-82
2021/01/24 09:39:26;;;;;;;6.22;0.90;;;6.40;99.90;;;;;;5048797;28;20048;-83
2021/01/24 09:41:53;;;;;;;5.20;0.98;;;6.60;99.90;;;;;;5055368;28;20041;-83
2021/01/24 09:44:19;;;;;;;5.53;0.73;;;6.70;99.90;;;;;;5042707;28;20060;-82
2021/01/24 09:46:46;;;;;;;10.57;1.00;;;6.90;99.90;;;;;;5038766;28;20080;-82
2021/01/24 09:49:13;;;;;;;3.25;0.80;;;7.20;99.90;;;;;;5040473;28;20049;-82
2021/01/24 09:51:39;;;;;;;4.95;0.75;;;7.30;99.90;;;;;;5056190;28;20048;-82
2021/01/24 09:54:06;;;;;;;5.88;0.80;;;7.40;99.90;;;;;;5041147;28;20048;-82
2021/01/24 09:56:32;;;;;;;3.78;0.70;;;7.20;99.90;;;;;;5047356;28;20102;-83
2021/01/24 09:58:59;;;;;;;3.83;0.70;;;6.90;99.90;;;;;;5040520;28;20048;-83
2021/01/24 10:01:26;;;;;;;4.78;0.80;;;6.60;99.90;;;;;;5045657;28;20056;-82
2021/01/24 10:03:53;;;;;;;5.40;0.60;;;6.30;99.90;;;;;;5073120;28;20131;-83
2021/01/24 10:06:21;;;;;;;4.88;0.70;;;6.10;99.90;;;;;;5045621;28;20047;-83
2021/01/24 10:08:48;;;;;;;4.85;1.00;;;5.90;99.90;;;;;;5049809;28;20056;-82
2021/01/24 10:11:14;;;;;;;6.72;0.73;;;5.80;99.90;;;;;;5055022;28;20040;-83
2021/01/24 10:13:41;;;;;;;8.43;0.98;;;5.70;99.90;;;;;;5063450;28;20045;-82
2021/01/24 10:16:08;;;;;;;6.57;0.82;;;5.70;99.90;;;;;;5059448;28;20040;-82
2021/01/24 10:18:35;;;;;;;7.50;1.48;;;5.60;99.90;;;;;;5042336;28;20084;-82
2021/01/24 10:21:01;;;;;;;4.60;0.90;;;5.70;99.90;;;;;;5034732;28;20495;-82
2021/01/24 10:23:28;;;;;;;7.40;1.08;;;5.80;99.90;;;;;;5063339;28;20045;-82
2021/01/24 10:25:56;;;;;;;6.00;0.90;;;5.90;99.90;;;;;;5054198;28;20044;-82
2021/01/24 10:28:26;;;;;;;4.75;0.60;;;6.00;99.90;;;;;;5044019;28;20521;-83
2021/01/24 10:30:53;;;;;;;4.47;0.68;;;6.20;99.90;;;;;;5063297;28;20106;-82
2021/01/24 10:33:21;;;;;;;4.35;0.88;;;6.30;99.90;;;;;;5047439;28;20057;-83
2021/01/24 10:35:49;;;;;;;4.80;1.27;;;6.40;99.90;;;;;;5039804;28;20094;-82
2021/01/24 10:38:16;;;;;;;4.53;0.88;;;6.50;99.90;;;;;;5040259;28;20434;-82
2021/01/24 10:40:43;;;;;;;4.22;1.70;;;6.60;99.90;;;;;;5037361;28;20044;-83
2021/01/24 10:43:10;;;;;;;8.07;3.45;;;6.70;99.90;;;;;;5038914;28;20037;-82
2021/01/24 10:45:37;;;;;;;6.43;2.38;;;6.80;99.90;;;;;;5043244;28;20049;-83
2021/01/24 10:48:06;;;;;;;7.13;0.95;;;6.80;99.90;;;;;;5032078;28;20045;-82
2021/01/24 10:50:35;;;;;;;4.80;0.70;;;6.90;99.90;;;;;;5046782;28;20407;-83
2021/01/24 10:53:03;;;;;;;8.07;0.75;;;6.90;99.90;;;;;;5054356;28;20516;-82
2021/01/24 10:55:30;;;;;;;4.05;1.13;;;6.90;99.90;;;;;;5052181;28;20060;-83
2021/01/24 10:57:57;;;;;;;4.63;0.80;;;6.90;99.90;;;;;;5070510;28;20048;-83
2021/01/24 11:00:24;;;;;;;6.82;1.02;;;7.00;99.90;;;;;;5054845;28;20539;-83
2021/01/24 11:02:50;;;;;;;6.57;1.52;;;7.10;99.90;;;;;;5052478;28;20457;-82
2021/01/24 11:05:17;;;;;;;4.85;1.08;;;7.10;99.90;;;;;;5045862;28;20093;-83
2021/01/24 11:07:43;;;;;;;4.95;0.80;;;7.30;99.90;;;;;;5049944;28;20048;-82
2021/01/24 11:10:11;;;;;;;4.40;1.63;;;7.40;99.90;;;;;;5033592;28;20048;-84
2021/01/24 11:12:37;;;;;;;7.95;1.40;;;7.60;99.90;;;;;;5058107;28;20060;-82
2021/01/24 11:15:04;;;;;;;5.35;1.30;;;7.70;99.90;;;;;;5057707;28;20052;-82
2021/01/24 11:17:32;;;;;;;9.10;1.77;;;7.90;99.90;;;;;;5047440;28;20572;-83
2021/01/24 11:19:59;;;;;;;8.73;1.88;;;8.00;99.90;;;;;;5075387;28;20048;-82
2021/01/24 11:22:25;;;;;;;7.00;1.50;;;8.00;99.90;;;;;;5041632;28;20056;-83
2021/01/24 11:24:52;;;;;;;6.38;1.25;;;8.00;99.90;;;;;;5058119;28;20041;-82
2021/01/24 11:27:18;;;;;;;8.18;0.80;;;7.80;99.90;;;;;;5056239;28;20049;-82
2021/01/24 11:29:45;;;;;;;14.50;1.38;;;7.70;99.90;;;;;;5057523;28;20072;-83
2021/01/24 11:32:11;;;;;;;7.18;1.15;;;7.60;99.90;;;;;;5059742;28;20055;-83
2021/01/24 11:34:39;;;;;;;6.97;1.10;;;7.50;99.90;;;;;;5038429;28;20135;-83
2021/01/24 11:37:07;;;;;;;5.85;0.90;;;7.50;99.90;;;;;;5056348;28;20053;-83
2021/01/24 11:39:35;;;;;;;5.87;1.47;;;7.50;99.90;;;;;;5058404;28;20202;-82
2021/01/24 11:42:02;;;;;;;8.88;1.65;;;7.60;99.90;;;;;;5038048;28;20669;-83
2021/01/24 11:44:30;;;;;;;8.20;0.90;;;7.60;99.90;;;;;;5042756;28;20064;-82
2021/01/24 11:46:56;;;;;;;4.97;0.80;;;7.70;99.90;;;;;;5053962;28;20040;-83
2021/01/24 11:49:23;;;;;;;3.53;0.80;;;7.60;99.90;;;;;;5057934;28;20487;-83
2021/01/24 11:51:50;;;;;;;3.92;0.75;;;7.60;99.90;;;;;;5041188;28;20094;-83
2021/01/24 11:54:17;;;;;;;5.10;0.90;;;7.60;99.90;;;;;;5057825;28;20048;-83
2021/01/24 11:56:43;;;;;;;7.68;0.90;;;7.60;99.90;;;;;;5058648;28;20060;-83
2021/01/24 11:59:11;;;;;;;3.53;0.68;;;7.60;99.90;;;;;;5058090;28;20041;-83
2021/01/24 12:01:37;;;;;;;7.20;0.85;;;7.60;99.90;;;;;;5060156;28;20053;-82
2021/01/24 12:04:04;;;;;;;11.55;1.20;;;7.60;99.90;;;;;;5052572;28;20527;-83
2021/01/24 12:06:31;;;;;;;8.13;1.10;;;7.60;99.90;;;;;;5044372;28;20128;-82
2021/01/24 12:08:57;;;;;;;7.65;1.27;;;7.60;99.90;;;;;;5060336;28;20064;-83
2021/01/24 12:11:23;;;;;;;6.07;1.58;;;7.60;99.90;;;;;;5060363;28;20053;-83
2021/01/24 12:13:50;;;;;;;6.63;1.33;;;7.70;99.90;;;;;;5060365;28;20072;-83
2021/01/24 12:16:16;;;;;;;10.35;1.50;;;7.70;99.90;;;;;;5048228;28;20041;-83
2021/01/24 12:18:43;;;;;;;9.38;1.60;;;7.90;99.90;;;;;;5055384;28;20044;-83
2021/01/24 12:21:10;;;;;;;9.55;1.98;;;8.00;99.90;;;;;;5060494;28;20060;-83
2021/01/24 12:23:36;;;;;;;8.30;1.20;;;8.10;99.90;;;;;;5063457;28;20064;-83
2021/01/24 12:26:03;;;;;;;9.43;1.98;;;8.30;99.90;;;;;;5048166;28;20367;-83
2021/01/24 12:28:29;;;;;;;6.50;1.20;;;8.30;99.90;;;;;;5046616;28;20137;-83
2021/01/24 12:30:56;;;;;;;8.77;1.10;;;8.40;99.90;;;;;;5072870;28;20045;-83
2021/01/24 12:33:22;;;;;;;6.05;1.20;;;8.50;99.90;;;;;;5045852;28;20052;-83
2021/01/24 12:35:49;;;;;;;4.22;0.57;;;8.40;99.90;;;;;;5061110;28;20131;-83
2021/01/24 12:38:15;;;;;;;4.00;0.68;;;8.30;99.90;;;;;;5073895;28;20068;-81
2021/01/24 12:40:42;;;;;;;2.38;0.55;;;8.20;99.90;;;;;;5059574;28;20078;-83
2021/01/24 12:43:08;;;;;;;4.40;0.60;;;8.10;99.90;;;;;;5046102;28;20049;-82
2021/01/24 12:45:35;;;;;;;5.60;0.70;;;8.00;99.90;;;;;;5057000;28;20052;-85
2021/01/24 12:48:01;;;;;;;2.92;0.50;;;7.90;99.90;;;;;;5032330;28;20044;-85
2021/01/24 12:50:27;;;;;;;7.22;1.25;;;7.80;99.90;;;;;;5035289;28;20088;-84
2021/01/24 12:52:54;;;;;;;6.10;0.50;;;7.70;99.90;;;;;;5045570;28;20063;-84
2021/01/24 12:55:20;;;;;;;4.55;0.45;;;7.80;99.90;;;;;;5056407;28;20057;-85
2021/01/24 12:57:47;;;;;;;7.55;1.45;;;7.80;99.90;;;;;;5032901;28;20045;-81
2021/01/24 13:00:13;;;;;;;7.72;2.10;;;7.80;99.90;;;;;;5040694;28;20053;-82
2021/01/24 13:02:40;;;;;;;8.25;1.65;;;7.80;99.90;;;;;;5043337;28;20049;-82
2021/01/24 13:05:09;;;;;;;16.02;3.83;;;7.80;99.90;;;;;;5043542;28;20081;-82